Time;durP1;ratioP1;P1;durP2;ratioP2;P2;SDS_P1;SDS_P2;PMS_P1;PMS_P2;Temp;Humidity;BMP_temperature;BMP_pressure;BME280_temperature;BME280_humidity;BME280_pressure;Samples;Min_cycle;Max_cycle;Signal;HPM_P1;HPM_P2
2023/06/01 00:02:22;;;;;;;19.85;14.18;;;16.10;99.90;;;;;;5077064;28;20033;-61
2023/06/01 00:04:49;;;;;;;32.45;15.63;;;16.10;99.90;;;;;;5077274;28;20052;-61
2023/06/01 00:07:17;;;;;;;26.33;15.93;;;16.10;99.90;;;;;;5077450;28;20378;-61
2023/06/01 00:09:43;;;;;;;23.17;15.63;;;16.00;99.90;;;;;;5077356;28;20066;-60
2023/06/01 00:12:09;;;;;;;26.50;15.75;;;15.90;99.90;;;;;;5077199;28;20032;-60
2023/06/01 00:14:35;;;;;;;23.98;15.20;;;15.90;99.90;;;;;;5077177;28;20477;-61
2023/06/01 00:17:03;;;;;;;20.92;15.30;;;15.80;99.90;;;;;;5077235;28;20095;-61
2023/06/01 00:19:29;;;;;;;21.80;15.93;;;15.90;99.90;;;;;;5077224;28;20102;-61
2023/06/01 00:21:55;;;;;;;27.15;16.42;;;15.90;99.90;;;;;;5077151;28;20025;-60
2023/06/01 00:24:22;;;;;;;26.08;16.40;;;15.90;99.90;;;;;;5077022;28;20025;-60
2023/06/01 00:26:48;;;;;;;24.70;15.18;;;15.90;99.90;;;;;;5077125;28;20052;-61
2023/06/01 00:29:14;;;;;;;23.08;15.02;;;15.80;99.90;;;;;;5075686;28;20037;-61
2023/06/01 00:31:40;;;;;;;27.75;15.25;;;15.80;99.90;;;;;;5077264;28;20032;-60
2023/06/01 00:34:07;;;;;;;21.63;14.65;;;15.90;99.90;;;;;;5075636;28;20036;-60
2023/06/01 00:36:33;;;;;;;23.05;14.77;;;15.90;99.90;;;;;;5076810;28;20056;-61
2023/06/01 00:39:02;;;;;;;21.50;15.02;;;15.80;99.90;;;;;;5076928;28;20058;-60
2023/06/01 00:41:31;;;;;;;20.33;15.13;;;15.80;99.90;;;;;;5076807;28;20070;-61
2023/06/01 00:43:58;;;;;;;24.25;16.02;;;15.70;99.90;;;;;;5076633;28;20103;-60
2023/06/01 00:46:24;;;;;;;31.77;14.88;;;15.60;99.90;;;;;;5075423;28;20032;-60
2023/06/01 00:48:51;;;;;;;23.70;16.00;;;15.60;99.90;;;;;;5076241;28;20036;-60
2023/06/01 00:51:18;;;;;;;22.38;15.00;;;15.60;99.90;;;;;;5076471;28;20029;-60
2023/06/01 00:53:44;;;;;;;26.38;16.65;;;15.50;99.90;;;;;;5075319;28;20039;-61
2023/06/01 00:56:13;;;;;;;22.80;14.70;;;15.50;99.90;;;;;;5076440;28;20086;-60
2023/06/01 00:58:40;;;;;;;29.08;15.77;;;15.40;99.90;;;;;;5076365;28;20133;-60
2023/06/01 01:01:07;;;;;;;23.77;15.75;;;15.40;99.90;;;;;;5076590;28;20031;-60
2023/06/01 01:03:38;;;;;;;25.45;15.32;;;15.40;99.90;;;;;;5075030;28;20078;-60
2023/06/01 01:06:30;;;;;;;22.63;14.23;;;15.30;99.90;;;;;;5076335;28;20229;-61
2023/06/01 01:09:27;;;;;;;19.17;14.30;;;15.40;99.90;;;;;;5076138;28;20432;-60
2023/06/01 01:12:06;;;;;;;24.33;14.20;;;15.30;99.90;;;;;;5076203;28;20036;-61
2023/06/01 01:14:40;;;;;;;31.08;15.02;;;15.30;99.90;;;;;;5074700;28;20024;-61
2023/06/01 01:17:19;;;;;;;29.58;14.43;;;15.30;99.90;;;;;;5074745;28;20481;-60
2023/06/01 01:20:08;;;;;;;28.73;14.73;;;15.20;99.90;;;;;;5074717;28;20401;-61
2023/06/01 01:22:43;;;;;;;24.88;13.77;;;15.10;99.90;;;;;;5076165;28;20031;-60
2023/06/01 01:25:41;;;;;;;23.80;13.60;;;15.10;99.90;;;;;;5074534;28;20043;-61
2023/06/01 01:28:36;;;;;;;24.88;14.00;;;15.10;99.90;;;;;;5074508;28;20044;-60
2023/06/01 01:31:04;;;;;;;30.05;14.25;;;15.00;99.90;;;;;;5056255;28;20036;-61
2023/06/01 01:33:32;;;;;;;26.58;14.00;;;15.00;99.90;;;;;;5074490;28;20032;-61
2023/06/01 01:36:00;;;;;;;27.80;14.23;;;15.10;99.90;;;;;;5075651;28;20035;-61
2023/06/01 01:38:26;;;;;;;26.30;15.90;;;15.10;99.90;;;;;;5074275;28;20137;-60
2023/06/01 01:40:52;;;;;;;27.58;14.95;;;15.20;99.90;;;;;;5075643;28;20051;-61
2023/06/01 01:43:21;;;;;;;29.75;17.25;;;15.10;99.90;;;;;;5075619;28;20382;-61
2023/06/01 01:45:57;;;;;;;24.80;16.95;;;15.20;99.90;;;;;;5075438;28;20432;-60
2023/06/01 01:48:31;;;;;;;30.40;16.17;;;15.20;99.90;;;;;;5075350;28;20024;-60
2023/06/01 01:51:06;;;;;;;35.08;19.92;;;15.20;99.90;;;;;;5074091;28;20033;-60
2023/06/01 01:53:35;;;;;;;30.65;16.67;;;15.30;99.90;;;;;;5075243;28;20032;-60
2023/06/01 01:56:02;;;;;;;28.60;15.15;;;15.30;99.90;;;;;;5074015;28;20040;-60
2023/06/01 01:58:29;;;;;;;33.03;15.52;;;15.40;99.90;;;;;;5073901;28;20071;-60
2023/06/01 02:00:56;;;;;;;34.00;16.42;;;15.40;99.90;;;;;;5073093;28;20078;-61
2023/06/01 02:03:22;;;;;;;25.70;16.00;;;15.40;99.90;;;;;;5073641;28;20028;-60
2023/06/01 02:05:49;;;;;;;28.55;17.48;;;15.40;99.90;;;;;;5073551;28;20055;-61
2023/06/01 02:08:15;;;;;;;41.25;19.70;;;15.40;99.90;;;;;;5073873;28;20032;-60
2023/06/01 02:10:42;;;;;;;26.38;17.00;;;15.50;99.90;;;;;;5073611;28;20032;-60
2023/06/01 02:13:09;;;;;;;27.98;18.85;;;15.60;99.90;;;;;;5073614;28;20029;-60
2023/06/01 02:15:35;;;;;;;34.63;19.50;;;15.60;99.90;;;;;;5073577;28;20029;-60
2023/06/01 02:18:02;;;;;;;31.17;17.65;;;15.60;99.90;;;;;;5074852;28;20039;-60
2023/06/01 02:20:28;;;;;;;28.88;17.10;;;15.60;99.90;;;;;;5073691;28;20056;-60
2023/06/01 02:22:54;;;;;;;25.13;16.30;;;15.60;99.90;;;;;;5073503;28;20500;-60
2023/06/01 02:25:20;;;;;;;31.92;18.10;;;15.60;99.90;;;;;;5073528;28;20029;-61
2023/06/01 02:27:46;;;;;;;35.45;21.27;;;15.60;99.90;;;;;;5074849;28;20489;-60
2023/06/01 02:30:12;;;;;;;34.00;21.33;;;15.50;99.90;;;;;;5073458;28;20035;-60
2023/06/01 02:32:38;;;;;;;41.25;22.80;;;15.60;99.90;;;;;;5074783;28;20032;-60
2023/06/01 02:35:06;;;;;;;28.50;18.38;;;15.50;99.90;;;;;;5073445;28;20035;-60
2023/06/01 02:37:32;;;;;;;34.03;15.77;;;15.60;99.90;;;;;;5073354;28;20028;-60
2023/06/01 02:39:58;;;;;;;34.47;16.98;;;15.50;99.90;;;;;;5074740;28;20025;-61
2023/06/01 02:42:24;;;;;;;31.25;18.05;;;15.50;99.90;;;;;;5073278;28;20070;-61
2023/06/01 02:44:50;;;;;;;34.42;19.98;;;15.50;99.90;;;;;;5074445;28;20040;-60
2023/06/01 02:47:16;;;;;;;36.40;20.30;;;15.50;99.90;;;;;;5074637;28;20056;-61
2023/06/01 02:49:42;;;;;;;43.53;22.17;;;15.50;99.90;;;;;;5074547;28;20543;-61
2023/06/01 02:52:08;;;;;;;36.28;20.75;;;15.50;99.90;;;;;;5073090;28;20105;-60
2023/06/01 02:54:34;;;;;;;41.28;22.10;;;15.60;99.90;;;;;;5073131;28;20123;-61
2023/06/01 02:57:10;;;;;;;46.83;22.67;;;15.60;99.90;;;;;;5073146;28;20077;-60
2023/06/01 02:59:46;;;;;;;63.10;25.77;;;15.70;99.90;;;;;;5073021;28;20066;-60
2023/06/01 03:02:12;;;;;;;45.83;25.08;;;15.60;99.90;;;;;;5073160;28;20032;-60
2023/06/01 03:04:38;;;;;;;45.25;22.85;;;15.70;99.90;;;;;;5072856;28;20313;-60
2023/06/01 03:07:05;;;;;;;48.50;24.25;;;15.70;99.90;;;;;;5072986;28;20390;-60
2023/06/01 03:09:45;;;;;;;48.95;25.48;;;15.70;99.90;;;;;;5072993;28;20063;-60
2023/06/01 03:12:31;;;;;;;60.25;26.33;;;15.60;99.90;;;;;;5056860;28;20425;-60
2023/06/01 03:14:57;;;;;;;61.92;27.05;;;15.40;99.90;;;;;;5077068;28;20032;-61
2023/06/01 03:17:23;;;;;;;57.22;26.33;;;15.30;99.90;;;;;;5078310;28;20340;-60
2023/06/01 03:19:49;;;;;;;62.47;26.20;;;15.30;99.90;;;;;;5077021;28;20025;-61
2023/06/01 03:22:20;;;;;;;49.58;23.85;;;15.40;99.90;;;;;;5077252;28;20124;-60
2023/06/01 03:24:50;;;;;;;48.55;25.33;;;15.40;99.90;;;;;;5076862;28;20090;-60
2023/06/01 03:27:19;;;;;;;48.65;23.63;;;15.50;99.90;;;;;;5076830;28;20028;-61
2023/06/01 03:29:46;;;;;;;48.33;23.40;;;15.60;99.90;;;;;;5078132;28;20021;-61
2023/06/01 03:32:13;;;;;;;45.50;23.10;;;15.50;99.90;;;;;;5078040;28;20032;-60
2023/06/01 03:34:41;;;;;;;42.97;22.60;;;15.60;99.90;;;;;;5076625;28;20036;-60
2023/06/01 03:37:07;;;;;;;45.08;22.25;;;15.60;99.90;;;;;;5077902;28;20034;-60
2023/06/01 03:39:35;;;;;;;56.33;25.35;;;15.50;99.90;;;;;;5077989;28;20409;-61
2023/06/01 03:42:03;;;;;;;48.45;23.77;;;15.30;99.90;;;;;;5076566;28;20028;-60
2023/06/01 03:44:30;;;;;;;50.08;23.75;;;15.40;99.90;;;;;;5076601;28;20477;-60
2023/06/01 03:46:56;;;;;;;44.25;22.23;;;15.40;99.90;;;;;;5077728;28;20027;-60
2023/06/01 03:49:22;;;;;;;61.53;23.50;;;15.50;99.90;;;;;;5076268;28;20043;-61
2023/06/01 03:51:48;;;;;;;57.20;23.65;;;15.50;99.90;;;;;;5076336;28;20056;-60
2023/06/01 03:54:15;;;;;;;67.47;25.73;;;15.40;99.90;;;;;;5076336;28;20036;-60
2023/06/01 03:56:41;;;;;;;63.30;26.15;;;15.50;99.90;;;;;;5076270;28;20036;-61
2023/06/01 03:59:07;;;;;;;54.05;24.20;;;15.50;99.90;;;;;;5076194;28;20124;-61
2023/06/01 04:01:33;;;;;;;56.15;24.13;;;15.60;99.90;;;;;;5077508;28;20424;-60
2023/06/01 04:04:00;;;;;;;62.60;25.55;;;15.70;99.90;;;;;;5075928;28;20066;-61
2023/06/01 04:06:29;;;;;;;67.20;26.00;;;15.70;99.90;;;;;;5075979;28;20090;-61
2023/06/01 04:08:58;;;;;;;66.18;25.95;;;15.80;99.90;;;;;;5075880;28;20025;-60
2023/06/01 04:11:26;;;;;;;71.13;26.77;;;15.80;99.90;;;;;;5075957;28;20028;-61
2023/06/01 04:13:52;;;;;;;72.40;27.98;;;15.80;99.90;;;;;;5075693;28;20067;-61
2023/06/01 04:16:20;;;;;;;62.80;27.02;;;15.80;99.90;;;;;;5075791;28;20032;-60
2023/06/01 04:18:46;;;;;;;64.20;27.17;;;15.80;99.90;;;;;;5075791;28;20029;-61
2023/06/01 04:21:19;;;;;;;69.07;27.50;;;15.90;99.90;;;;;;5075893;28;20036;-60
2023/06/01 04:23:45;;;;;;;64.85;29.17;;;16.00;99.90;;;;;;5075022;28;20033;-61
2023/06/01 04:26:13;;;;;;;67.90;27.67;;;15.90;99.90;;;;;;5075695;28;20032;-61
2023/06/01 04:28:43;;;;;;;68.50;27.92;;;16.00;99.90;;;;;;5077056;28;20032;-60
2023/06/01 04:31:16;;;;;;;62.00;25.88;;;16.20;99.90;;;;;;5075639;28;20052;-61
2023/06/01 04:33:45;;;;;;;67.88;28.65;;;16.20;99.90;;;;;;5075599;28;20033;-60
2023/06/01 04:36:13;;;;;;;76.53;30.13;;;16.30;99.90;;;;;;5075535;28;20033;-61
2023/06/01 04:38:42;;;;;;;66.00;31.25;;;16.30;99.90;;;;;;5075341;28;20032;-61
2023/06/01 04:41:12;;;;;;;55.45;27.00;;;16.20;99.90;;;;;;5075323;28;20028;-61
2023/06/01 04:43:42;;;;;;;66.05;27.52;;;16.20;99.90;;;;;;5075378;28;20025;-61
2023/06/01 04:46:09;;;;;;;61.00;24.48;;;16.30;99.90;;;;;;5075533;28;20555;-61
2023/06/01 04:48:36;;;;;;;64.63;24.88;;;16.30;99.90;;;;;;5075297;28;20044;-61
2023/06/01 04:51:04;;;;;;;73.70;25.40;;;16.40;99.90;;;;;;5075242;28;20040;-60
2023/06/01 04:53:30;;;;;;;65.93;24.83;;;16.30;99.90;;;;;;5075222;28;20033;-60
2023/06/01 04:55:56;;;;;;;68.40;25.30;;;16.20;99.90;;;;;;5075282;28;20033;-60
2023/06/01 04:58:22;;;;;;;76.07;27.65;;;16.20;99.90;;;;;;5076282;28;20029;-61
2023/06/01 05:00:48;;;;;;;78.03;27.35;;;16.10;99.90;;;;;;5076171;28;20103;-61
2023/06/01 05:03:15;;;;;;;76.40;26.23;;;16.20;99.90;;;;;;5076526;28;20025;-61
2023/06/01 05:05:41;;;;;;;71.95;26.50;;;16.10;99.90;;;;;;5074694;28;20048;-61
2023/06/01 05:08:08;;;;;;;81.25;28.25;;;16.20;99.90;;;;;;5074764;28;20025;-61
2023/06/01 05:10:34;;;;;;;76.88;27.08;;;16.40;99.90;;;;;;5074904;28;20043;-60
2023/06/01 05:13:00;;;;;;;73.22;27.98;;;16.50;99.90;;;;;;5074722;28;20060;-61
2023/06/01 05:15:27;;;;;;;84.60;29.38;;;16.60;99.90;;;;;;5074602;28;20044;-61
2023/06/01 05:17:55;;;;;;;74.78;28.60;;;16.50;99.90;;;;;;5074809;28;20353;-60
2023/06/01 05:20:21;;;;;;;74.93;30.13;;;16.50;99.90;;;;;;5074553;28;20317;-60
2023/06/01 05:22:52;;;;;;;88.30;32.75;;;16.40;99.90;;;;;;5074637;28;20056;-60
2023/06/01 05:25:19;;;;;;;76.60;29.20;;;16.40;99.90;;;;;;5074418;28;20366;-61
2023/06/01 05:27:45;;;;;;;79.75;30.08;;;16.50;99.90;;;;;;5074504;28;20028;-61
2023/06/01 05:30:12;;;;;;;70.45;30.98;;;16.70;99.90;;;;;;5074562;28;20044;-60
2023/06/01 05:32:38;;;;;;;71.82;28.63;;;16.70;99.90;;;;;;5074465;28;20029;-61
2023/06/01 05:35:14;;;;;;;68.32;28.50;;;16.50;99.90;;;;;;5073335;28;20367;-60
2023/06/01 05:37:40;;;;;;;71.03;30.08;;;16.60;99.90;;;;;;5074285;28;20039;-61
2023/06/01 05:40:08;;;;;;;73.68;31.90;;;16.80;99.90;;;;;;5071885;28;20029;-60
2023/06/01 05:42:35;;;;;;;75.03;32.03;;;16.70;99.90;;;;;;5073996;28;20033;-61
2023/06/01 05:45:02;;;;;;;78.25;31.80;;;16.60;99.90;;;;;;5074035;28;20024;-61
2023/06/01 05:47:30;;;;;;;77.45;32.72;;;16.50;99.90;;;;;;5073818;28;20039;-61
2023/06/01 05:49:56;;;;;;;76.75;31.35;;;16.60;99.90;;;;;;5073847;28;20486;-61
2023/06/01 05:52:23;;;;;;;65.50;28.92;;;16.70;99.90;;;;;;5073857;28;20025;-61
2023/06/01 05:54:50;;;;;;;62.45;27.80;;;16.70;99.90;;;;;;5071377;28;20025;-61
2023/06/01 05:57:16;;;;;;;64.38;27.90;;;16.80;99.90;;;;;;5072130;28;20131;-61
2023/06/01 05:59:43;;;;;;;69.85;29.13;;;16.90;99.90;;;;;;5094369;28;20039;-61
2023/06/01 06:02:09;;;;;;;64.50;28.25;;;16.90;99.90;;;;;;5093777;28;20095;-61
2023/06/01 06:04:35;;;;;;;73.60;28.92;;;16.80;99.90;;;;;;5095168;28;20462;-62
2023/06/01 06:07:01;;;;;;;66.18;27.75;;;16.90;99.90;;;;;;5095332;28;20020;-60
2023/06/01 06:09:30;;;;;;;61.72;25.38;;;16.90;99.90;;;;;;5094928;28;20089;-61
2023/06/01 06:11:56;;;;;;;67.03;26.70;;;17.00;99.90;;;;;;5095104;28;20035;-61
2023/06/01 06:14:22;;;;;;;65.20;28.52;;;17.00;99.90;;;;;;5090760;28;20478;-61
2023/06/01 06:16:48;;;;;;;63.38;28.15;;;17.00;99.90;;;;;;5066996;28;20029;-60
2023/06/01 06:19:18;;;;;;;67.40;27.38;;;17.10;99.90;;;;;;5054860;28;20547;-60
2023/06/01 06:21:44;;;;;;;58.72;25.83;;;17.00;99.90;;;;;;5054646;28;20021;-60
2023/06/01 06:24:10;;;;;;;61.13;27.67;;;17.10;99.90;;;;;;5054558;28;20064;-60
2023/06/01 06:26:36;;;;;;;56.72;25.05;;;17.10;99.90;;;;;;5058370;28;20101;-61
2023/06/01 06:29:02;;;;;;;60.53;26.20;;;17.30;99.90;;;;;;5064953;28;20107;-60
2023/06/01 06:31:28;;;;;;;68.45;27.40;;;17.20;99.90;;;;;;5074371;28;20024;-60
2023/06/01 06:33:53;;;;;;;60.75;25.98;;;17.20;99.90;;;;;;5074186;28;20031;-61
2023/06/01 06:36:20;;;;;;;68.38;26.55;;;17.30;99.90;;;;;;5067875;28;20024;-61
2023/06/01 06:58:04;;;;;;;48.03;26.67;;;18.20;99.90;;;;;;5090655;28;20373;-67
2023/06/01 07:00:33;;;;;;;45.33;24.92;;;18.90;99.90;;;;;;5072768;28;20024;-67
2023/06/01 07:03:00;;;;;;;41.42;25.63;;;19.00;99.90;;;;;;5091243;28;20457;-67
2023/06/01 07:05:26;;;;;;;45.45;24.55;;;19.10;99.90;;;;;;5085555;28;20017;-67
2023/06/01 07:07:52;;;;;;;47.35;24.45;;;19.20;99.90;;;;;;5076969;28;20030;-67
2023/06/01 07:10:20;;;;;;;44.17;23.65;;;19.20;99.90;;;;;;5089887;28;20098;-67
2023/06/01 07:12:46;;;;;;;32.78;20.30;;;19.30;99.90;;;;;;5091841;28;20032;-67
2023/06/01 07:15:12;;;;;;;30.48;19.17;;;19.50;99.90;;;;;;5073793;28;20103;-67
2023/06/01 07:17:38;;;;;;;34.53;21.77;;;19.70;99.90;;;;;;5084273;28;20477;-66
2023/06/01 07:20:11;;;;;;;37.55;19.90;;;19.80;99.90;;;;;;5089762;28;20021;-67
2023/06/01 07:22:40;;;;;;;32.42;19.08;;;20.00;99.90;;;;;;5089442;28;20033;-67
2023/06/01 07:25:07;;;;;;;27.83;17.73;;;20.10;99.90;;;;;;5084126;28;20214;-67
2023/06/01 07:27:37;;;;;;;32.38;17.65;;;20.40;99.90;;;;;;5089369;28;20035;-67
2023/06/01 07:30:08;;;;;;;32.45;18.52;;;20.60;99.90;;;;;;5088308;28;20058;-67
2023/06/01 07:32:35;;;;;;;27.75;18.45;;;20.80;99.90;;;;;;5079517;28;20043;-67
2023/06/01 07:35:06;;;;;;;34.08;20.30;;;21.00;99.90;;;;;;5070593;28;20059;-67
2023/06/01 07:37:32;;;;;;;28.33;17.23;;;21.00;99.90;;;;;;5073400;28;20529;-67
2023/06/01 07:39:58;;;;;;;23.60;16.65;;;21.10;99.90;;;;;;5088120;28;20103;-67
2023/06/01 07:42:24;;;;;;;29.05;17.15;;;21.20;99.90;;;;;;5088302;28;20055;-67
2023/06/01 07:44:53;;;;;;;23.40;16.13;;;21.40;99.90;;;;;;5083477;28;20098;-67
2023/06/01 07:47:20;;;;;;;25.73;16.65;;;21.70;99.90;;;;;;5090449;28;20033;-67
2023/06/01 07:49:46;;;;;;;23.95;15.55;;;21.90;99.90;;;;;;5085796;28;20039;-67
2023/06/01 07:52:12;;;;;;;22.58;14.73;;;22.00;99.90;;;;;;5089856;28;20016;-66
2023/06/01 07:54:38;;;;;;;19.13;13.68;;;22.50;99.90;;;;;;5090517;28;20024;-66
2023/06/01 07:57:05;;;;;;;21.05;14.18;;;22.50;99.90;;;;;;5087976;28;20098;-67
2023/06/01 07:59:32;;;;;;;19.35;14.00;;;22.60;99.90;;;;;;5075878;28;20032;-67
2023/06/01 08:01:59;;;;;;;25.27;14.18;;;23.10;99.90;;;;;;5076754;28;20024;-67
2023/06/01 08:04:26;;;;;;;22.63;14.50;;;23.10;99.90;;;;;;5057977;28;20033;-67
2023/06/01 08:06:55;;;;;;;31.52;14.32;;;22.80;99.90;;;;;;5074763;28;20119;-67
2023/06/01 08:09:23;;;;;;;19.52;13.68;;;22.80;99.90;;;;;;5074430;28;20470;-67
2023/06/01 08:11:50;;;;;;;17.30;12.45;;;23.50;99.90;;;;;;5075722;28;20028;-67
2023/06/01 08:14:18;;;;;;;18.88;11.32;;;23.70;99.90;;;;;;5075982;28;20023;-67
2023/06/01 08:16:45;;;;;;;18.02;12.85;;;23.90;99.90;;;;;;5074379;28;20055;-66
2023/06/01 08:19:12;;;;;;;18.23;12.07;;;24.20;99.90;;;;;;5075926;28;20025;-66
2023/06/01 08:21:41;;;;;;;22.35;13.98;;;24.40;99.40;;;;;;5076220;28;20033;-66
2023/06/01 08:24:08;;;;;;;17.98;12.50;;;24.40;97.90;;;;;;5075149;28;20067;-66
2023/06/01 08:26:35;;;;;;;17.13;12.30;;;24.30;99.20;;;;;;5074172;28;20456;-67
2023/06/01 08:29:03;;;;;;;21.10;12.82;;;24.00;99.30;;;;;;5076085;28;20032;-66
2023/06/01 08:31:29;;;;;;;17.88;12.48;;;23.70;99.20;;;;;;5076241;28;20028;-66
2023/06/01 08:33:56;;;;;;;17.17;11.95;;;23.70;98.00;;;;;;5074564;28;20039;-66
2023/06/01 08:36:22;;;;;;;19.00;12.00;;;23.70;99.50;;;;;;5075968;28;20036;-66
2023/06/01 08:38:50;;;;;;;14.27;10.57;;;23.60;98.60;;;;;;5075929;28;20029;-66
2023/06/01 08:41:42;;;;;;;17.92;12.45;;;23.60;98.10;;;;;;5074577;28;20056;-66
2023/06/01 08:44:10;;;;;;;17.27;12.25;;;23.70;98.00;;;;;;5074686;28;20562;-67
2023/06/01 08:46:38;;;;;;;37.65;22.40;;;23.50;99.90;;;;;;5074632;28;20037;-67
2023/06/01 08:49:06;;;;;;;54.00;30.60;;;23.40;99.90;;;;;;5068734;28;20017;-67
2023/06/01 08:51:36;;;;;;;47.05;28.90;;;23.20;99.90;;;;;;5074354;28;20028;-66
2023/06/01 08:54:05;;;;;;;40.58;25.67;;;23.50;99.80;;;;;;5075567;28;20361;-67
2023/06/01 08:56:31;;;;;;;38.15;23.65;;;23.60;99.60;;;;;;5075395;28;20106;-66
2023/06/01 08:59:00;;;;;;;67.78;35.88;;;23.90;98.20;;;;;;5076106;28;20086;-68
2023/06/01 09:01:27;;;;;;;47.40;27.48;;;23.80;98.30;;;;;;5075566;28;20082;-66
2023/06/01 09:03:56;;;;;;;95.65;51.75;;;24.00;99.50;;;;;;5062455;28;20029;-66
2023/06/01 09:06:23;;;;;;;94.07;48.20;;;24.10;97.60;;;;;;5051302;28;20060;-67
2023/06/01 09:08:49;;;;;;;76.65;41.97;;;24.10;97.80;;;;;;5070142;28;20063;-66
2023/06/01 09:11:19;;;;;;;79.28;43.75;;;24.50;98.00;;;;;;5074790;28;20113;-66
2023/06/01 09:13:45;;;;;;;80.72;46.78;;;24.50;98.10;;;;;;5073904;28;20401;-66
2023/06/01 09:16:12;;;;;;;81.88;44.20;;;24.60;96.30;;;;;;5069563;28;20393;-67
2023/06/01 09:18:54;;;;;;;66.03;38.13;;;24.70;95.20;;;;;;5062471;28;20055;-66
2023/06/01 09:21:20;;;;;;;67.85;38.00;;;25.20;95.80;;;;;;5053923;28;20056;-66
2023/06/01 09:23:47;;;;;;;69.47;38.20;;;25.70;95.30;;;;;;5054639;28;20441;-66
2023/06/01 09:26:15;;;;;;;60.83;32.28;;;26.10;91.70;;;;;;5067150;28;20051;-67
2023/06/01 09:29:00;;;;;;;53.50;29.42;;;26.00;86.90;;;;;;5075148;28;20527;-67
2023/06/01 09:31:36;;;;;;;62.17;32.80;;;26.00;91.80;;;;;;5071872;28;20032;-67
2023/06/01 09:34:05;;;;;;;69.80;38.60;;;26.70;91.10;;;;;;5079271;28;20489;-66
2023/06/01 09:36:32;;;;;;;61.93;36.77;;;25.90;87.50;;;;;;5072810;28;20033;-66
2023/06/01 09:39:07;;;;;;;50.97;30.85;;;26.00;89.20;;;;;;5061677;28;20281;-66
2023/06/01 09:41:52;;;;;;;54.17;30.27;;;26.20;84.80;;;;;;5054852;28;20363;-66
2023/06/01 09:44:33;;;;;;;53.72;32.20;;;26.30;80.90;;;;;;5073497;28;20390;-66
2023/06/01 09:47:09;;;;;;;59.17;32.25;;;26.60;83.20;;;;;;5074141;28;20028;-66
2023/06/01 09:49:45;;;;;;;58.08;33.05;;;27.10;80.10;;;;;;5069603;28;20060;-67
2023/06/01 09:52:14;;;;;;;45.60;26.63;;;27.30;79.50;;;;;;5074492;28;20119;-66
2023/06/01 09:54:49;;;;;;;41.92;25.42;;;27.60;78.80;;;;;;5073749;28;20107;-67
2023/06/01 09:57:22;;;;;;;44.42;25.38;;;27.70;78.80;;;;;;5074444;28;20048;-66
2023/06/01 09:59:48;;;;;;;31.85;18.30;;;27.80;72.40;;;;;;5070103;28;20032;-66
2023/06/01 10:02:16;;;;;;;38.58;24.02;;;27.50;70.90;;;;;;5066245;28;20056;-66
2023/06/01 10:04:58;;;;;;;38.95;24.15;;;27.80;72.50;;;;;;5071584;28;20024;-66
2023/06/01 10:07:27;;;;;;;43.25;23.90;;;28.10;72.50;;;;;;5065653;28;20470;-66
2023/06/01 10:09:58;;;;;;;29.13;19.23;;;28.20;74.70;;;;;;5070919;28;20533;-66
2023/06/01 10:12:25;;;;;;;25.55;17.10;;;28.60;71.10;;;;;;5072486;28;20243;-66
2023/06/01 10:14:56;;;;;;;28.67;17.40;;;28.50;66.90;;;;;;5070294;28;20032;-66
2023/06/01 10:17:22;;;;;;;24.50;17.02;;;27.70;68.20;;;;;;5055889;28;20360;-66
2023/06/01 10:19:49;;;;;;;29.80;17.85;;;28.50;70.50;;;;;;5068835;28;20036;-66
2023/06/01 10:22:16;;;;;;;23.88;17.00;;;28.80;65.30;;;;;;5058628;28;20028;-66
2023/06/01 10:24:43;;;;;;;29.90;17.92;;;28.20;67.00;;;;;;5070430;28;20059;-66
2023/06/01 10:27:22;;;;;;;22.70;14.55;;;28.50;71.10;;;;;;5071825;28;20073;-66
2023/06/01 10:29:49;;;;;;;22.42;13.07;;;29.00;71.20;;;;;;5073072;28;20435;-66
2023/06/01 10:32:37;;;;;;;18.17;12.38;;;28.20;73.10;;;;;;5073993;28;20025;-66
2023/06/01 10:35:07;;;;;;;20.05;12.75;;;28.40;72.90;;;;;;5071973;28;20024;-66
2023/06/01 10:37:33;;;;;;;20.77;12.20;;;28.70;71.50;;;;;;5073033;28;20024;-67
2023/06/01 10:40:18;;;;;;;15.65;11.15;;;28.70;71.80;;;;;;5073285;28;20033;-67
2023/06/01 10:42:44;;;;;;;13.30;9.40;;;27.80;72.30;;;;;;5072936;28;20063;-67
2023/06/01 10:45:43;;;;;;;13.40;9.00;;;27.00;76.30;;;;;;5063976;28;20143;-67
2023/06/01 10:48:11;;;;;;;31.92;10.82;;;26.40;79.50;;;;;;5012355;28;20120;-67
2023/06/01 10:50:41;;;;;;;14.23;9.23;;;26.40;77.90;;;;;;5062595;28;20399;-66
2023/06/01 10:53:23;;;;;;;;;;;26.50;77.20;;;;;;5069089;28;20091;-67
2023/06/01 10:56:27;;;;;;;19.40;10.55;;;25.80;80.10;;;;;;5073222;28;20343;-66
2023/06/01 10:59:08;;;;;;;23.65;10.73;;;25.60;83.50;;;;;;5052549;28;20052;-66
2023/06/01 11:01:40;;;;;;;17.70;9.45;;;25.80;80.50;;;;;;5054842;28;20388;-66
2023/06/01 11:04:07;;;;;;;14.10;9.55;;;26.30;83.80;;;;;;5064404;28;20033;-67
2023/06/01 11:06:37;;;;;;;16.52;9.77;;;25.90;81.30;;;;;;5072608;28;20033;-66
2023/06/01 11:09:10;;;;;;;16.40;10.40;;;25.70;82.40;;;;;;5063964;28;20021;-67
2023/06/01 11:11:51;;;;;;;22.65;9.88;;;24.90;83.50;;;;;;5074625;28;20489;-67
2023/06/01 11:14:19;;;;;;;17.33;10.10;;;25.00;88.50;;;;;;5072813;28;20028;-66
2023/06/01 11:16:45;;;;;;;15.73;10.48;;;24.90;90.60;;;;;;5072456;28;20078;-67
2023/06/01 11:19:24;;;;;;;15.90;12.20;;;25.10;87.80;;;;;;5073879;28;20024;-66
2023/06/01 11:22:04;;;;;;;21.67;12.63;;;24.80;87.10;;;;;;5073714;28;20033;-67
2023/06/01 11:24:37;;;;;;;16.95;11.15;;;24.80;90.40;;;;;;5073244;28;20020;-66
2023/06/01 11:27:12;;;;;;;21.10;10.52;;;24.80;92.30;;;;;;5072884;28;20445;-67
2023/06/01 11:29:46;;;;;;;14.10;9.98;;;24.80;90.40;;;;;;5072964;28;20016;-66
2023/06/01 11:32:14;;;;;;;21.15;12.52;;;24.60;91.10;;;;;;5070180;28;20025;-66
2023/06/01 11:34:44;;;;;;;14.52;10.70;;;24.70;91.60;;;;;;5067918;28;20058;-66
2023/06/01 11:37:17;;;;;;;29.65;12.27;;;24.90;90.70;;;;;;5075982;28;20102;-67
2023/06/01 11:39:45;;;;;;;24.48;12.32;;;24.80;91.30;;;;;;5077318;28;20066;-67
2023/06/01 11:42:19;;;;;;;16.50;11.50;;;24.80;91.60;;;;;;5077537;28;20020;-67
2023/06/01 11:44:56;;;;;;;13.48;11.57;;;24.70;90.50;;;;;;5076176;28;20029;-66
2023/06/01 11:47:22;;;;;;;21.92;11.48;;;24.50;90.90;;;;;;5075946;28;20068;-67
2023/06/01 11:49:51;;;;;;;17.50;10.82;;;24.30;91.60;;;;;;5074851;28;20059;-66
2023/06/01 11:52:18;;;;;;;19.85;12.15;;;24.50;91.90;;;;;;5074539;28;20039;-67
2023/06/01 11:54:45;;;;;;;21.85;12.82;;;24.40;93.70;;;;;;5077700;28;20031;-67
2023/06/01 11:57:11;;;;;;;16.15;11.25;;;24.40;93.20;;;;;;5076823;28;20040;-67
2023/06/01 11:59:41;;;;;;;13.95;10.45;;;24.50;95.50;;;;;;5076405;28;20393;-67
2023/06/01 12:02:26;;;;;;;18.17;10.23;;;24.50;93.50;;;;;;5077020;28;20517;-66
2023/06/01 12:05:08;;;;;;;13.98;8.93;;;24.20;93.30;;;;;;5075525;28;20444;-66
2023/06/01 12:07:44;;;;;;;15.25;10.20;;;24.10;97.10;;;;;;5074735;28;20036;-66
2023/06/01 12:10:16;;;;;;;13.07;9.60;;;24.00;95.10;;;;;;5071692;28;20037;-66
2023/06/01 12:12:43;;;;;;;14.77;8.80;;;23.90;99.60;;;;;;5056524;28;20092;-66
2023/06/01 12:15:14;;;;;;;13.55;9.68;;;23.70;96.90;;;;;;5073974;28;20025;-66
2023/06/01 12:17:51;;;;;;;11.98;8.55;;;23.30;96.10;;;;;;5068000;28;20025;-65
2023/06/01 12:20:41;;;;;;;14.55;9.23;;;23.50;97.20;;;;;;5071733;28;20024;-65
2023/06/01 12:23:12;;;;;;;28.55;20.02;;;23.10;99.90;;;;;;5065051;28;20123;-65
2023/06/01 12:25:55;;;;;;;25.52;15.43;;;22.40;99.90;;;;;;5075111;28;20036;-65
2023/06/01 12:28:22;;;;;;;22.45;14.43;;;21.80;99.90;;;;;;5074979;28;20028;-65
2023/06/01 12:30:48;;;;;;;33.10;20.27;;;21.60;99.90;;;;;;5074951;28;20031;-64
2023/06/01 12:33:35;;;;;;;30.02;20.30;;;21.30;99.90;;;;;;5067383;28;20484;-64
2023/06/01 12:36:03;;;;;;;45.65;23.23;;;21.00;99.90;;;;;;5065520;28;20111;-64
2023/06/01 12:38:50;;;;;;;34.78;22.27;;;21.10;99.90;;;;;;5075564;28;20040;-64
2023/06/01 12:41:17;;;;;;;38.00;24.73;;;21.00;99.90;;;;;;5068925;28;20032;-64
2023/06/01 12:43:47;;;;;;;40.47;25.83;;;21.00;99.90;;;;;;5061562;28;20638;-64
2023/06/01 12:46:35;;;;;;;44.67;26.13;;;21.10;99.90;;;;;;5063599;28;20036;-64
2023/06/01 12:49:17;;;;;;;37.33;26.83;;;21.30;99.90;;;;;;5074702;28;20025;-64
2023/06/01 12:51:43;;;;;;;38.33;27.83;;;21.50;99.90;;;;;;5064857;28;20020;-64
2023/06/01 12:54:09;;;;;;;39.15;26.60;;;21.60;99.90;;;;;;5067201;28;20024;-64
2023/06/01 12:56:35;;;;;;;44.30;28.75;;;21.70;99.90;;;;;;5068978;28;20084;-65
2023/06/01 12:59:01;;;;;;;40.30;27.50;;;21.60;99.90;;;;;;5067793;28;20509;-64
2023/06/01 13:01:27;;;;;;;40.17;27.05;;;21.70;99.90;;;;;;5068389;28;20048;-64